sensor_id;sensor_type;location;lat;lon;timestamp;temperature;humidity
27162;DHT22;54464;50.558;9.704;2022-09-09T00:00:55;15.60;99.90
27162;DHT22;54464;50.558;9.704;2022-09-09T00:03:31;15.50;99.90
27162;DHT22;54464;50.558;9.704;2022-09-09T00:08:56;15.60;99.90
27162;DHT22;54464;50.558;9.704;2022-09-09T00:11:30;15.70;99.90
27162;DHT22;54464;50.558;9.704;2022-09-09T00:14:00;15.70;99.90
27162;DHT22;54464;50.558;9.704;2022-09-09T00:16:32;15.80;99.90
27162;DHT22;54464;50.558;9.704;2022-09-09T00:19:08;15.80;99.90
27162;DHT22;54464;50.558;9.704;2022-09-09T00:24:27;15.80;99.90
27162;DHT22;54464;50.558;9.704;2022-09-09T00:29:51;15.70;99.90
27162;DHT22;54464;50.558;9.704;2022-09-09T00:32:20;15.70;99.90
27162;DHT22;54464;50.558;9.704;2022-09-09T00:34:53;15.70;99.90
27162;DHT22;54464;50.558;9.704;2022-09-09T00:37:22;15.70;99.90
27162;DHT22;54464;50.558;9.704;2022-09-09T00:39:52;15.70;99.90
27162;DHT22;54464;50.558;9.704;2022-09-09T00:42:25;15.70;99.90
27162;DHT22;54464;50.558;9.704;2022-09-09T00:47:50;15.70;99.90
27162;DHT22;54464;50.558;9.704;2022-09-09T00:55:43;15.70;99.90
27162;DHT22;54464;50.558;9.704;2022-09-09T00:58:10;15.60;99.90
27162;DHT22;54464;50.558;9.704;2022-09-09T01:00:44;15.70;99.90
27162;DHT22;54464;50.558;9.704;2022-09-09T01:06:31;15.70;99.90
27162;DHT22;54464;50.558;9.704;2022-09-09T01:09:21;15.70;99.90
27162;DHT22;54464;50.558;9.704;2022-09-09T01:12:11;15.60;99.90
27162;DHT22;54464;50.558;9.704;2022-09-09T01:14:45;15.70;99.90
27162;DHT22;54464;50.558;9.704;2022-09-09T01:22:26;15.70;99.90
27162;DHT22;54464;50.558;9.704;2022-09-09T01:27:19;15.70;99.90
27162;DHT22;54464;50.558;9.704;2022-09-09T01:29:46;15.70;99.90
27162;DHT22;54464;50.558;9.704;2022-09-09T01:32:42;15.70;99.90
27162;DHT22;54464;50.558;9.704;2022-09-09T01:35:12;15.80;99.90
27162;DHT22;54464;50.558;9.704;2022-09-09T01:37:40;15.70;99.90
27162;DHT22;54464;50.558;9.704;2022-09-09T01:40:06;15.60;99.90
27162;DHT22;54464;50.558;9.704;2022-09-09T01:42:32;15.60;99.90
27162;DHT22;54464;50.558;9.704;2022-09-09T01:44:58;15.60;99.90
27162;DHT22;54464;50.558;9.704;2022-09-09T01:47:24;15.60;99.90
27162;DHT22;54464;50.558;9.704;2022-09-09T01:49:50;15.50;99.90
27162;DHT22;54464;50.558;9.704;2022-09-09T01:52:15;15.50;99.90
27162;DHT22;54464;50.558;9.704;2022-09-09T01:54:41;15.60;99.90
27162;DHT22;54464;50.558;9.704;2022-09-09T02:10:45;15.50;99.90
27162;DHT22;54464;50.558;9.704;2022-09-09T02:15:56;15.50;99.90
27162;DHT22;54464;50.558;9.704;2022-09-09T02:21:01;15.40;99.90
27162;DHT22;54464;50.558;9.704;2022-09-09T02:23:28;15.40;99.90
27162;DHT22;54464;50.558;9.704;2022-09-09T02:25:56;15.40;99.90
27162;DHT22;54464;50.558;9.704;2022-09-09T02:28:25;15.40;99.90
27162;DHT22;54464;50.558;9.704;2022-09-09T02:30:52;15.40;99.90
27162;DHT22;54464;50.558;9.704;2022-09-09T02:33:25;15.30;99.90
27162;DHT22;54464;50.558;9.704;2022-09-09T02:35:52;15.30;99.90
27162;DHT22;54464;50.558;9.704;2022-09-09T02:38:21;15.30;99.90
27162;DHT22;54464;50.558;9.704;2022-09-09T02:40:47;15.20;99.90
27162;DHT22;54464;50.558;9.704;2022-09-09T02:43:14;15.20;99.90
27162;DHT22;54464;50.558;9.704;2022-09-09T02:45:57;15.20;99.90
27162;DHT22;54464;50.558;9.704;2022-09-09T02:48:51;15.20;99.90
27162;DHT22;54464;50.558;9.704;2022-09-09T02:51:45;15.10;99.90
27162;DHT22;54464;50.558;9.704;2022-09-09T02:54:27;15.10;99.90
27162;DHT22;54464;50.558;9.704;2022-09-09T02:57:21;15.00;99.90
27162;DHT22;54464;50.558;9.704;2022-09-09T02:59:45;15.00;99.90
27162;DHT22;54464;50.558;9.704;2022-09-09T03:02:12;15.00;99.90
27162;DHT22;54464;50.558;9.704;2022-09-09T03:04:39;15.00;99.90
27162;DHT22;54464;50.558;9.704;2022-09-09T03:09:40;15.00;99.90
27162;DHT22;54464;50.558;9.704;2022-09-09T03:17:16;15.00;99.90
27162;DHT22;54464;50.558;9.704;2022-09-09T03:19:42;15.00;99.90
27162;DHT22;54464;50.558;9.704;2022-09-09T03:22:10;15.10;99.90
27162;DHT22;54464;50.558;9.704;2022-09-09T03:24:36;15.10;99.90
27162;DHT22;54464;50.558;9.704;2022-09-09T03:27:05;15.10;99.90
27162;DHT22;54464;50.558;9.704;2022-09-09T03:29:34;15.10;99.90
27162;DHT22;54464;50.558;9.704;2022-09-09T03:32:00;15.10;99.90
27162;DHT22;54464;50.558;9.704;2022-09-09T03:34:25;15.10;99.90
27162;DHT22;54464;50.558;9.704;2022-09-09T03:36:51;15.10;99.90
27162;DHT22;54464;50.558;9.704;2022-09-09T03:39:17;15.20;99.90
27162;DHT22;54464;50.558;9.704;2022-09-09T03:41:42;15.20;99.90
27162;DHT22;54464;50.558;9.704;2022-09-09T03:44:11;15.10;99.90
27162;DHT22;54464;50.558;9.704;2022-09-09T03:46:37;15.20;99.90
27162;DHT22;54464;50.558;9.704;2022-09-09T03:49:03;15.20;99.90
27162;DHT22;54464;50.558;9.704;2022-09-09T03:51:29;15.30;99.90
27162;DHT22;54464;50.558;9.704;2022-09-09T03:53:55;15.30;99.90
27162;DHT22;54464;50.558;9.704;2022-09-09T03:56:23;15.30;99.90
27162;DHT22;54464;50.558;9.704;2022-09-09T03:58:49;15.30;99.90
27162;DHT22;54464;50.558;9.704;2022-09-09T04:01:15;15.30;99.90
27162;DHT22;54464;50.558;9.704;2022-09-09T04:03:43;15.30;99.90
27162;DHT22;54464;50.558;9.704;2022-09-09T04:06:11;15.30;99.90
27162;DHT22;54464;50.558;9.704;2022-09-09T04:08:39;15.40;99.90
27162;DHT22;54464;50.558;9.704;2022-09-09T04:11:05;15.40;99.90
27162;DHT22;54464;50.558;9.704;2022-09-09T04:13:33;15.40;99.90
27162;DHT22;54464;50.558;9.704;2022-09-09T04:16:00;15.30;99.90
27162;DHT22;54464;50.558;9.704;2022-09-09T04:18:26;15.20;99.90
27162;DHT22;54464;50.558;9.704;2022-09-09T04:20:54;15.20;99.90
27162;DHT22;54464;50.558;9.704;2022-09-09T04:23:23;15.20;99.90
27162;DHT22;54464;50.558;9.704;2022-09-09T04:25:54;15.20;99.90
27162;DHT22;54464;50.558;9.704;2022-09-09T04:28:22;15.20;99.90
27162;DHT22;54464;50.558;9.704;2022-09-09T04:30:48;15.10;99.90
27162;DHT22;54464;50.558;9.704;2022-09-09T04:33:14;15.10;99.90
27162;DHT22;54464;50.558;9.704;2022-09-09T04:35:52;15.00;99.90
27162;DHT22;54464;50.558;9.704;2022-09-09T04:38:19;15.00;99.90
27162;DHT22;54464;50.558;9.704;2022-09-09T04:40:50;15.00;99.90
27162;DHT22;54464;50.558;9.704;2022-09-09T04:43:17;14.90;99.90
27162;DHT22;54464;50.558;9.704;2022-09-09T04:45:47;14.90;99.90
27162;DHT22;54464;50.558;9.704;2022-09-09T04:48:13;14.90;99.90
27162;DHT22;54464;50.558;9.704;2022-09-09T04:50:39;14.90;99.90
27162;DHT22;54464;50.558;9.704;2022-09-09T04:53:06;14.90;99.90
27162;DHT22;54464;50.558;9.704;2022-09-09T04:55:33;14.90;99.90
27162;DHT22;54464;50.558;9.704;2022-09-09T04:58:04;14.90;99.90
27162;DHT22;54464;50.558;9.704;2022-09-09T05:00:30;14.90;99.90
27162;DHT22;54464;50.558;9.704;2022-09-09T05:02:56;15.00;99.90
27162;DHT22;54464;50.558;9.704;2022-09-09T05:05:22;15.00;99.90
27162;DHT22;54464;50.558;9.704;2022-09-09T05:07:47;15.00;99.90
27162;DHT22;54464;50.558;9.704;2022-09-09T05:10:13;15.00;99.90
27162;DHT22;54464;50.558;9.704;2022-09-09T05:12:40;15.00;99.90
27162;DHT22;54464;50.558;9.704;2022-09-09T05:15:06;15.00;99.90
27162;DHT22;54464;50.558;9.704;2022-09-09T05:17:32;14.90;99.90
27162;DHT22;54464;50.558;9.704;2022-09-09T05:19:59;14.90;99.90
27162;DHT22;54464;50.558;9.704;2022-09-09T05:22:24;14.90;99.90
27162;DHT22;54464;50.558;9.704;2022-09-09T05:24:50;14.90;99.90
27162;DHT22;54464;50.558;9.704;2022-09-09T05:27:17;14.90;99.90
27162;DHT22;54464;50.558;9.704;2022-09-09T05:29:45;14.90;99.90
27162;DHT22;54464;50.558;9.704;2022-09-09T05:32:10;14.80;99.90
27162;DHT22;54464;50.558;9.704;2022-09-09T05:34:36;14.90;99.90
27162;DHT22;54464;50.558;9.704;2022-09-09T05:37:15;14.80;99.90
27162;DHT22;54464;50.558;9.704;2022-09-09T05:39:42;14.80;99.90
27162;DHT22;54464;50.558;9.704;2022-09-09T05:42:07;14.80;99.90
27162;DHT22;54464;50.558;9.704;2022-09-09T05:44:33;14.80;99.90
27162;DHT22;54464;50.558;9.704;2022-09-09T05:46:59;14.80;99.90
27162;DHT22;54464;50.558;9.704;2022-09-09T05:49:24;14.90;99.90
27162;DHT22;54464;50.558;9.704;2022-09-09T05:51:50;14.90;99.90
27162;DHT22;54464;50.558;9.704;2022-09-09T05:54:17;15.00;99.90
27162;DHT22;54464;50.558;9.704;2022-09-09T05:56:42;15.10;99.90
27162;DHT22;54464;50.558;9.704;2022-09-09T05:59:08;15.20;99.90
27162;DHT22;54464;50.558;9.704;2022-09-09T06:01:35;15.20;99.90
27162;DHT22;54464;50.558;9.704;2022-09-09T06:04:02;15.20;99.90
27162;DHT22;54464;50.558;9.704;2022-09-09T06:06:34;15.20;99.90
27162;DHT22;54464;50.558;9.704;2022-09-09T06:09:06;15.20;99.90
27162;DHT22;54464;50.558;9.704;2022-09-09T06:11:35;15.30;99.90
27162;DHT22;54464;50.558;9.704;2022-09-09T06:14:01;15.30;99.90
27162;DHT22;54464;50.558;9.704;2022-09-09T06:16:29;15.30;99.90
27162;DHT22;54464;50.558;9.704;2022-09-09T06:18:56;15.30;99.90
27162;DHT22;54464;50.558;9.704;2022-09-09T06:21:26;15.30;99.90
27162;DHT22;54464;50.558;9.704;2022-09-09T06:23:52;15.40;99.90
27162;DHT22;54464;50.558;9.704;2022-09-09T06:26:22;15.40;99.90
27162;DHT22;54464;50.558;9.704;2022-09-09T06:28:50;15.40;99.90
27162;DHT22;54464;50.558;9.704;2022-09-09T06:31:19;15.40;99.90
27162;DHT22;54464;50.558;9.704;2022-09-09T06:33:50;15.40;99.90
27162;DHT22;54464;50.558;9.704;2022-09-09T06:36:19;15.40;99.90
27162;DHT22;54464;50.558;9.704;2022-09-09T06:38:45;15.40;99.90
27162;DHT22;54464;50.558;9.704;2022-09-09T06:41:13;15.50;99.90
27162;DHT22;54464;50.558;9.704;2022-09-09T06:43:39;15.40;99.90
27162;DHT22;54464;50.558;9.704;2022-09-09T06:46:20;15.40;99.90
27162;DHT22;54464;50.558;9.704;2022-09-09T06:48:47;15.50;99.90
27162;DHT22;54464;50.558;9.704;2022-09-09T06:51:21;15.50;99.90
27162;DHT22;54464;50.558;9.704;2022-09-09T06:53:50;15.50;99.90
27162;DHT22;54464;50.558;9.704;2022-09-09T06:56:23;15.50;99.90
27162;DHT22;54464;50.558;9.704;2022-09-09T06:58:51;15.50;99.90
27162;DHT22;54464;50.558;9.704;2022-09-09T07:01:19;15.50;99.90
27162;DHT22;54464;50.558;9.704;2022-09-09T07:03:48;15.50;99.90
27162;DHT22;54464;50.558;9.704;2022-09-09T07:06:18;15.60;99.90
27162;DHT22;54464;50.558;9.704;2022-09-09T07:08:55;15.60;99.90
27162;DHT22;54464;50.558;9.704;2022-09-09T07:11:22;15.60;99.90
27162;DHT22;54464;50.558;9.704;2022-09-09T07:13:49;15.60;99.90
27162;DHT22;54464;50.558;9.704;2022-09-09T07:16:17;15.70;99.90
27162;DHT22;54464;50.558;9.704;2022-09-09T07:18:43;15.80;99.90
27162;DHT22;54464;50.558;9.704;2022-09-09T07:21:10;15.80;99.90
27162;DHT22;54464;50.558;9.704;2022-09-09T07:23:38;15.80;99.90
27162;DHT22;54464;50.558;9.704;2022-09-09T07:26:16;15.90;99.90
27162;DHT22;54464;50.558;9.704;2022-09-09T07:28:42;15.90;99.90
27162;DHT22;54464;50.558;9.704;2022-09-09T07:33:42;15.90;99.90
27162;DHT22;54464;50.558;9.704;2022-09-09T07:36:09;15.90;99.90
27162;DHT22;54464;50.558;9.704;2022-09-09T07:38:52;16.00;99.90
27162;DHT22;54464;50.558;9.704;2022-09-09T07:41:31;16.10;99.90
27162;DHT22;54464;50.558;9.704;2022-09-09T07:43:57;16.10;99.90
27162;DHT22;54464;50.558;9.704;2022-09-09T07:46:25;16.10;99.90
27162;DHT22;54464;50.558;9.704;2022-09-09T07:48:53;16.10;99.90
27162;DHT22;54464;50.558;9.704;2022-09-09T07:51:31;16.20;99.90
27162;DHT22;54464;50.558;9.704;2022-09-09T07:53:59;16.10;99.90
27162;DHT22;54464;50.558;9.704;2022-09-09T07:56:27;16.20;99.90
27162;DHT22;54464;50.558;9.704;2022-09-09T07:58:54;16.20;99.90
27162;DHT22;54464;50.558;9.704;2022-09-09T08:01:29;16.10;99.90
27162;DHT22;54464;50.558;9.704;2022-09-09T08:04:00;16.10;99.90
27162;DHT22;54464;50.558;9.704;2022-09-09T08:06:31;16.10;99.90
27162;DHT22;54464;50.558;9.704;2022-09-09T08:08:59;16.00;99.90
27162;DHT22;54464;50.558;9.704;2022-09-09T08:11:26;16.00;99.90
27162;DHT22;54464;50.558;9.704;2022-09-09T08:13:52;15.90;99.90
27162;DHT22;54464;50.558;9.704;2022-09-09T08:16:24;15.90;99.90
27162;DHT22;54464;50.558;9.704;2022-09-09T08:18:51;16.00;99.90
27162;DHT22;54464;50.558;9.704;2022-09-09T08:21:19;16.00;99.90
27162;DHT22;54464;50.558;9.704;2022-09-09T08:23:47;16.00;99.90
27162;DHT22;54464;50.558;9.704;2022-09-09T08:26:20;16.00;99.90
27162;DHT22;54464;50.558;9.704;2022-09-09T08:28:48;16.10;99.90
27162;DHT22;54464;50.558;9.704;2022-09-09T08:31:22;16.10;99.90
27162;DHT22;54464;50.558;9.704;2022-09-09T08:33:48;16.20;99.90
27162;DHT22;54464;50.558;9.704;2022-09-09T08:36:17;16.30;99.90
27162;DHT22;54464;50.558;9.704;2022-09-09T08:38:43;16.40;99.90
27162;DHT22;54464;50.558;9.704;2022-09-09T08:44:14;16.50;99.90
27162;DHT22;54464;50.558;9.704;2022-09-09T08:46:46;16.50;99.90
27162;DHT22;54464;50.558;9.704;2022-09-09T08:50:02;16.50;99.90
27162;DHT22;54464;50.558;9.704;2022-09-09T08:52:03;16.60;99.90
27162;DHT22;54464;50.558;9.704;2022-09-09T08:54:35;16.80;99.90
27162;DHT22;54464;50.558;9.704;2022-09-09T08:57:03;17.00;99.90
27162;DHT22;54464;50.558;9.704;2022-09-09T08:59:33;17.00;99.90
27162;DHT22;54464;50.558;9.704;2022-09-09T09:02:32;17.00;99.90
27162;DHT22;54464;50.558;9.704;2022-09-09T09:05:33;17.20;99.90
27162;DHT22;54464;50.558;9.704;2022-09-09T09:10:49;17.30;99.90
27162;DHT22;54464;50.558;9.704;2022-09-09T09:13:17;17.30;99.90
27162;DHT22;54464;50.558;9.704;2022-09-09T09:15:45;17.30;99.90
27162;DHT22;54464;50.558;9.704;2022-09-09T09:18:12;17.30;99.90
27162;DHT22;54464;50.558;9.704;2022-09-09T09:20:50;17.30;99.90
27162;DHT22;54464;50.558;9.704;2022-09-09T09:23:25;17.50;99.90
27162;DHT22;54464;50.558;9.704;2022-09-09T09:25:56;17.50;99.90
27162;DHT22;54464;50.558;9.704;2022-09-09T09:28:27;17.50;99.90
27162;DHT22;54464;50.558;9.704;2022-09-09T09:33:33;17.70;99.90
27162;DHT22;54464;50.558;9.704;2022-09-09T09:35:59;17.60;99.90
27162;DHT22;54464;50.558;9.704;2022-09-09T09:38:27;17.90;99.90
27162;DHT22;54464;50.558;9.704;2022-09-09T09:40:57;18.00;99.90
27162;DHT22;54464;50.558;9.704;2022-09-09T09:43:33;18.30;99.90
27162;DHT22;54464;50.558;9.704;2022-09-09T09:45:59;18.30;99.90
27162;DHT22;54464;50.558;9.704;2022-09-09T09:48:27;18.30;99.90
27162;DHT22;54464;50.558;9.704;2022-09-09T09:51:03;18.20;99.90
27162;DHT22;54464;50.558;9.704;2022-09-09T09:53:34;18.10;99.90
27162;DHT22;54464;50.558;9.704;2022-09-09T09:56:06;18.50;99.90
27162;DHT22;54464;50.558;9.704;2022-09-09T09:58:50;18.50;99.90
27162;DHT22;54464;50.558;9.704;2022-09-09T10:01:25;18.50;99.90
27162;DHT22;54464;50.558;9.704;2022-09-09T10:04:20;18.40;99.90
27162;DHT22;54464;50.558;9.704;2022-09-09T10:06:47;18.60;99.90
27162;DHT22;54464;50.558;9.704;2022-09-09T10:09:30;18.80;99.90
27162;DHT22;54464;50.558;9.704;2022-09-09T10:12:30;19.00;99.90
27162;DHT22;54464;50.558;9.704;2022-09-09T10:22:49;19.00;99.90
27162;DHT22;54464;50.558;9.704;2022-09-09T10:25:31;18.90;99.90
27162;DHT22;54464;50.558;9.704;2022-09-09T10:34:17;18.90;99.90
27162;DHT22;54464;50.558;9.704;2022-09-09T10:36:48;18.70;99.90
27162;DHT22;54464;50.558;9.704;2022-09-09T10:39:37;18.70;99.90
27162;DHT22;54464;50.558;9.704;2022-09-09T10:42:06;18.80;99.90
27162;DHT22;54464;50.558;9.704;2022-09-09T10:55:39;18.90;99.90
27162;DHT22;54464;50.558;9.704;2022-09-09T10:58:12;18.80;99.90
27162;DHT22;54464;50.558;9.704;2022-09-09T11:00:44;18.80;99.90
27162;DHT22;54464;50.558;9.704;2022-09-09T11:03:28;19.00;99.90
27162;DHT22;54464;50.558;9.704;2022-09-09T11:06:04;18.90;99.90
27162;DHT22;54464;50.558;9.704;2022-09-09T11:08:34;18.90;99.90
27162;DHT22;54464;50.558;9.704;2022-09-09T11:11:11;18.90;99.90
27162;DHT22;54464;50.558;9.704;2022-09-09T11:21:52;18.60;99.90
27162;DHT22;54464;50.558;9.704;2022-09-09T11:24:40;18.40;99.90
27162;DHT22;54464;50.558;9.704;2022-09-09T11:27:14;18.20;99.90
27162;DHT22;54464;50.558;9.704;2022-09-09T11:30:20;18.00;99.90
27162;DHT22;54464;50.558;9.704;2022-09-09T11:33:25;17.60;99.90
27162;DHT22;54464;50.558;9.704;2022-09-09T11:36:35;17.00;99.90
27162;DHT22;54464;50.558;9.704;2022-09-09T11:41:41;16.60;99.90
27162;DHT22;54464;50.558;9.704;2022-09-09T11:44:11;17.00;99.90
27162;DHT22;54464;50.558;9.704;2022-09-09T11:46:39;17.50;99.90
27162;DHT22;54464;50.558;9.704;2022-09-09T11:49:26;17.90;99.90
27162;DHT22;54464;50.558;9.704;2022-09-09T11:51:52;18.30;99.90
27162;DHT22;54464;50.558;9.704;2022-09-09T11:54:33;18.60;99.90
27162;DHT22;54464;50.558;9.704;2022-09-09T11:59:54;19.00;99.90
27162;DHT22;54464;50.558;9.704;2022-09-09T12:02:25;19.00;99.90
27162;DHT22;54464;50.558;9.704;2022-09-09T12:07:37;19.00;99.90
27162;DHT22;54464;50.558;9.704;2022-09-09T12:10:34;18.90;99.90
27162;DHT22;54464;50.558;9.704;2022-09-09T12:13:17;19.00;99.90
27162;DHT22;54464;50.558;9.704;2022-09-09T12:15:55;18.90;99.90
27162;DHT22;54464;50.558;9.704;2022-09-09T12:18:31;18.90;99.90
27162;DHT22;54464;50.558;9.704;2022-09-09T12:21:31;18.90;99.90
27162;DHT22;54464;50.558;9.704;2022-09-09T12:24:11;19.10;99.90
27162;DHT22;54464;50.558;9.704;2022-09-09T12:26:47;19.70;98.90
27162;DHT22;54464;50.558;9.704;2022-09-09T12:32:30;20.50;97.30
27162;DHT22;54464;50.558;9.704;2022-09-09T12:40:37;21.20;94.80
27162;DHT22;54464;50.558;9.704;2022-09-09T12:43:18;21.50;94.40
27162;DHT22;54464;50.558;9.704;2022-09-09T12:45:45;21.60;93.30
27162;DHT22;54464;50.558;9.704;2022-09-09T12:48:11;21.60;92.40
27162;DHT22;54464;50.558;9.704;2022-09-09T12:50:51;21.50;93.00
27162;DHT22;54464;50.558;9.704;2022-09-09T12:53:26;21.10;93.10
27162;DHT22;54464;50.558;9.704;2022-09-09T12:55:59;20.70;93.50
27162;DHT22;54464;50.558;9.704;2022-09-09T12:58:26;20.60;93.50
27162;DHT22;54464;50.558;9.704;2022-09-09T13:00:56;20.30;94.00
27162;DHT22;54464;50.558;9.704;2022-09-09T13:03:23;20.10;94.30
27162;DHT22;54464;50.558;9.704;2022-09-09T13:05:51;20.50;93.20
27162;DHT22;54464;50.558;9.704;2022-09-09T13:08:19;21.10;91.80
27162;DHT22;54464;50.558;9.704;2022-09-09T13:10:54;21.40;91.20
27162;DHT22;54464;50.558;9.704;2022-09-09T13:13:24;21.40;92.00
27162;DHT22;54464;50.558;9.704;2022-09-09T13:15:53;21.20;90.40
27162;DHT22;54464;50.558;9.704;2022-09-09T13:18:23;21.10;91.20
27162;DHT22;54464;50.558;9.704;2022-09-09T13:20:50;21.60;90.40
27162;DHT22;54464;50.558;9.704;2022-09-09T13:23:18;21.60;89.40
27162;DHT22;54464;50.558;9.704;2022-09-09T13:25:57;21.20;90.30
27162;DHT22;54464;50.558;9.704;2022-09-09T13:28:26;21.00;91.30
27162;DHT22;54464;50.558;9.704;2022-09-09T13:31:18;21.50;91.50
27162;DHT22;54464;50.558;9.704;2022-09-09T13:33:45;21.60;91.50
27162;DHT22;54464;50.558;9.704;2022-09-09T13:36:12;21.30;92.70
27162;DHT22;54464;50.558;9.704;2022-09-09T13:41:42;20.90;93.60
27162;DHT22;54464;50.558;9.704;2022-09-09T13:44:27;20.60;93.70
27162;DHT22;54464;50.558;9.704;2022-09-09T13:49:30;20.60;93.20
27162;DHT22;54464;50.558;9.704;2022-09-09T13:52:09;20.50;93.50
27162;DHT22;54464;50.558;9.704;2022-09-09T13:54:35;20.40;93.80
27162;DHT22;54464;50.558;9.704;2022-09-09T13:57:01;20.20;93.50
27162;DHT22;54464;50.558;9.704;2022-09-09T13:59:28;20.00;93.40
27162;DHT22;54464;50.558;9.704;2022-09-09T14:01:53;19.80;93.80
27162;DHT22;54464;50.558;9.704;2022-09-09T14:04:20;19.60;94.10
27162;DHT22;54464;50.558;9.704;2022-09-09T14:06:49;19.60;94.60
27162;DHT22;54464;50.558;9.704;2022-09-09T14:09:16;19.60;94.80
27162;DHT22;54464;50.558;9.704;2022-09-09T14:11:44;19.50;94.80
27162;DHT22;54464;50.558;9.704;2022-09-09T14:14:11;19.40;95.20
27162;DHT22;54464;50.558;9.704;2022-09-09T14:16:36;19.40;95.80
27162;DHT22;54464;50.558;9.704;2022-09-09T14:19:03;19.30;96.00
27162;DHT22;54464;50.558;9.704;2022-09-09T14:21:28;19.20;96.10
27162;DHT22;54464;50.558;9.704;2022-09-09T14:23:54;19.20;96.30
27162;DHT22;54464;50.558;9.704;2022-09-09T14:26:21;19.20;95.80
27162;DHT22;54464;50.558;9.704;2022-09-09T14:28:48;19.20;96.10
27162;DHT22;54464;50.558;9.704;2022-09-09T14:31:14;19.20;96.40
27162;DHT22;54464;50.558;9.704;2022-09-09T14:33:40;19.10;96.40
27162;DHT22;54464;50.558;9.704;2022-09-09T14:36:06;19.00;97.00
27162;DHT22;54464;50.558;9.704;2022-09-09T14:38:34;19.10;97.20
27162;DHT22;54464;50.558;9.704;2022-09-09T14:41:04;19.20;97.00
27162;DHT22;54464;50.558;9.704;2022-09-09T14:43:30;19.20;96.70
27162;DHT22;54464;50.558;9.704;2022-09-09T14:46:06;19.10;96.90
27162;DHT22;54464;50.558;9.704;2022-09-09T14:48:33;19.10;97.90
27162;DHT22;54464;50.558;9.704;2022-09-09T14:51:05;19.00;98.90
27162;DHT22;54464;50.558;9.704;2022-09-09T14:53:31;18.90;98.60
27162;DHT22;54464;50.558;9.704;2022-09-09T14:56:08;18.80;99.10
27162;DHT22;54464;50.558;9.704;2022-09-09T14:58:35;18.60;99.70
27162;DHT22;54464;50.558;9.704;2022-09-09T15:01:09;18.70;99.90
27162;DHT22;54464;50.558;9.704;2022-09-09T15:03:37;18.80;99.10
27162;DHT22;54464;50.558;9.704;2022-09-09T15:06:13;18.70;99.20
27162;DHT22;54464;50.558;9.704;2022-09-09T15:08:42;18.60;98.80
27162;DHT22;54464;50.558;9.704;2022-09-09T15:11:08;18.60;99.40
27162;DHT22;54464;50.558;9.704;2022-09-09T15:13:37;18.50;99.30
27162;DHT22;54464;50.558;9.704;2022-09-09T15:16:06;18.40;99.80
27162;DHT22;54464;50.558;9.704;2022-09-09T15:18:33;18.50;99.90
27162;DHT22;54464;50.558;9.704;2022-09-09T15:20:59;18.60;99.90
27162;DHT22;54464;50.558;9.704;2022-09-09T15:23:26;18.80;99.70
27162;DHT22;54464;50.558;9.704;2022-09-09T15:25:53;18.90;99.30
27162;DHT22;54464;50.558;9.704;2022-09-09T15:28:20;19.10;98.50
27162;DHT22;54464;50.558;9.704;2022-09-09T15:30:53;19.30;98.50
27162;DHT22;54464;50.558;9.704;2022-09-09T15:33:20;19.30;98.40
27162;DHT22;54464;50.558;9.704;2022-09-09T15:35:46;19.20;97.20
27162;DHT22;54464;50.558;9.704;2022-09-09T15:38:13;19.20;97.60
27162;DHT22;54464;50.558;9.704;2022-09-09T15:40:41;19.20;97.80
27162;DHT22;54464;50.558;9.704;2022-09-09T15:43:07;19.30;96.50
27162;DHT22;54464;50.558;9.704;2022-09-09T15:45:35;19.40;96.90
27162;DHT22;54464;50.558;9.704;2022-09-09T15:48:01;19.20;97.50
27162;DHT22;54464;50.558;9.704;2022-09-09T15:50:27;19.10;97.10
27162;DHT22;54464;50.558;9.704;2022-09-09T15:53:01;19.10;97.20
27162;DHT22;54464;50.558;9.704;2022-09-09T15:55:26;19.20;96.70
27162;DHT22;54464;50.558;9.704;2022-09-09T15:57:52;19.30;96.60
27162;DHT22;54464;50.558;9.704;2022-09-09T16:00:19;19.30;96.60
27162;DHT22;54464;50.558;9.704;2022-09-09T16:02:47;19.50;96.20
27162;DHT22;54464;50.558;9.704;2022-09-09T16:05:13;19.30;96.40
27162;DHT22;54464;50.558;9.704;2022-09-09T16:07:38;19.20;96.60
27162;DHT22;54464;50.558;9.704;2022-09-09T16:10:05;19.20;97.30
27162;DHT22;54464;50.558;9.704;2022-09-09T16:12:31;19.10;97.20
27162;DHT22;54464;50.558;9.704;2022-09-09T16:14:57;19.00;97.60
27162;DHT22;54464;50.558;9.704;2022-09-09T16:17:22;18.90;97.90
27162;DHT22;54464;50.558;9.704;2022-09-09T16:19:48;18.80;98.20
27162;DHT22;54464;50.558;9.704;2022-09-09T16:22:14;18.70;98.40
27162;DHT22;54464;50.558;9.704;2022-09-09T16:24:40;18.70;98.50
27162;DHT22;54464;50.558;9.704;2022-09-09T16:27:06;18.70;98.40
27162;DHT22;54464;50.558;9.704;2022-09-09T16:29:32;18.60;98.70
27162;DHT22;54464;50.558;9.704;2022-09-09T16:31:58;18.50;98.80
27162;DHT22;54464;50.558;9.704;2022-09-09T16:34:25;18.50;98.90
27162;DHT22;54464;50.558;9.704;2022-09-09T16:36:51;18.40;99.30
27162;DHT22;54464;50.558;9.704;2022-09-09T16:39:19;18.50;98.60
27162;DHT22;54464;50.558;9.704;2022-09-09T16:41:46;18.40;98.60
27162;DHT22;54464;50.558;9.704;2022-09-09T16:44:14;18.30;98.60
27162;DHT22;54464;50.558;9.704;2022-09-09T16:46:42;18.30;98.80
27162;DHT22;54464;50.558;9.704;2022-09-09T16:49:11;18.20;98.90
27162;DHT22;54464;50.558;9.704;2022-09-09T16:51:39;18.20;98.90
27162;DHT22;54464;50.558;9.704;2022-09-09T16:54:07;18.20;99.00
27162;DHT22;54464;50.558;9.704;2022-09-09T16:56:35;18.20;99.00
27162;DHT22;54464;50.558;9.704;2022-09-09T16:59:09;18.20;99.20
27162;DHT22;54464;50.558;9.704;2022-09-09T17:01:37;18.20;99.40
27162;DHT22;54464;50.558;9.704;2022-09-09T17:04:06;18.10;99.60
27162;DHT22;54464;50.558;9.704;2022-09-09T17:06:33;18.10;99.60
27162;DHT22;54464;50.558;9.704;2022-09-09T17:09:06;18.10;99.70
27162;DHT22;54464;50.558;9.704;2022-09-09T17:11:33;18.00;99.90
27162;DHT22;54464;50.558;9.704;2022-09-09T17:13:59;18.00;99.90
27162;DHT22;54464;50.558;9.704;2022-09-09T17:16:28;17.90;99.90
27162;DHT22;54464;50.558;9.704;2022-09-09T17:18:55;17.90;99.90
27162;DHT22;54464;50.558;9.704;2022-09-09T17:21:24;17.90;99.90
27162;DHT22;54464;50.558;9.704;2022-09-09T17:23:51;17.80;99.90
27162;DHT22;54464;50.558;9.704;2022-09-09T17:26:19;17.80;99.90
27162;DHT22;54464;50.558;9.704;2022-09-09T17:28:45;17.80;99.90
27162;DHT22;54464;50.558;9.704;2022-09-09T17:31:13;17.70;99.90
27162;DHT22;54464;50.558;9.704;2022-09-09T17:33:41;17.70;99.90
27162;DHT22;54464;50.558;9.704;2022-09-09T17:36:09;17.70;99.90
27162;DHT22;54464;50.558;9.704;2022-09-09T17:38:34;17.70;99.90
27162;DHT22;54464;50.558;9.704;2022-09-09T17:41:26;17.70;99.90
27162;DHT22;54464;50.558;9.704;2022-09-09T17:43:54;17.60;99.90
27162;DHT22;54464;50.558;9.704;2022-09-09T17:46:22;17.50;99.90
27162;DHT22;54464;50.558;9.704;2022-09-09T17:48:50;17.50;99.90
27162;DHT22;54464;50.558;9.704;2022-09-09T17:51:19;17.50;99.90